createdAt,value
2019-04-25T00:00:13.856Z,35.67
2019-04-25T00:02:44.988Z,36.15
2019-04-25T00:07:43.893Z,36.03
2019-04-25T00:10:13.967Z,36.50
2019-04-25T00:12:44.576Z,34.78
2019-04-25T00:15:15.547Z,36.85
2019-04-25T00:17:46.184Z,38.33
2019-04-25T00:20:16.179Z,38.78
2019-04-25T00:22:57.267Z,35.80
2019-04-25T00:25:28.460Z,35.95
2019-04-25T00:27:58.059Z,36.77
2019-04-25T00:32:57.956Z,37.28
2019-04-25T00:35:29.502Z,36.60
2019-04-25T00:37:59.056Z,36.88
2019-04-25T00:42:57.707Z,37.10
2019-04-25T00:45:27.171Z,37.30
2019-04-25T00:47:56.843Z,38.28
2019-04-25T00:50:26.459Z,37.80
2019-04-25T00:55:28.614Z,38.33
2019-04-25T00:57:57.557Z,36.93
2019-04-25T01:00:28.680Z,38.45
2019-04-25T01:03:01.645Z,37.90
2019-04-25T01:05:31.589Z,35.73
2019-04-25T01:08:02.123Z,36.55
2019-04-25T01:10:32.013Z,36.80
2019-04-25T01:13:03.082Z,39.38
2019-04-25T01:15:33.942Z,37.93
2019-04-25T01:18:04.871Z,38.08
2019-04-25T01:20:37.027Z,37.03
2019-04-25T01:23:06.451Z,36.80
2019-04-25T01:28:06.400Z,34.85
2019-04-25T01:33:05.391Z,36.88
2019-04-25T01:35:36.588Z,35.13
2019-04-25T01:46:55.626Z,36.33
2019-04-25T01:49:26.394Z,36.75
2019-04-25T01:54:27.516Z,36.40
2019-04-25T01:59:27.012Z,38.02
2019-04-25T02:01:56.814Z,37.45
2019-04-25T02:04:26.481Z,37.78
2019-04-25T02:09:25.671Z,38.78
2019-04-25T02:11:56.892Z,39.25
2019-04-25T02:14:27.572Z,40.03
2019-04-25T02:16:58.480Z,39.50
2019-04-25T02:19:30.099Z,39.63
2019-04-25T02:21:59.943Z,38.08
2019-04-25T02:24:29.680Z,40.52
2019-04-25T02:26:59.234Z,39.18
2019-04-25T02:32:00.257Z,40.40
2019-04-25T02:34:28.757Z,38.53
2019-04-25T02:39:29.232Z,40.67
2019-04-25T02:42:01.048Z,39.27
2019-04-25T02:44:31.599Z,39.15
2019-04-25T02:47:06.489Z,39.03
2019-04-25T02:49:44.772Z,41.35
2019-04-25T02:55:10.296Z,41.70
2019-04-25T02:57:38.172Z,40.15
2019-04-25T03:02:38.767Z,39.15
2019-04-25T03:07:38.746Z,40.30
2019-04-25T03:12:39.567Z,41.35
2019-04-25T03:17:39.980Z,40.83
2019-04-25T03:23:19.977Z,42.67
2019-04-25T03:25:49.596Z,40.33
2019-04-25T03:30:47.994Z,41.37
2019-04-25T03:36:19.496Z,41.80
2019-04-25T03:38:48.984Z,42.00
2019-04-25T03:41:18.456Z,43.20
2019-04-25T03:46:18.015Z,43.02
2019-04-25T03:48:47.806Z,43.78
2019-04-25T03:53:46.076Z,43.43
2019-04-25T03:58:44.266Z,44.47
2019-04-25T04:01:15.612Z,44.98
2019-04-25T04:03:45.141Z,44.75
2019-04-25T04:08:45.199Z,43.78
2019-04-25T04:13:45.332Z,43.68
2019-04-25T04:18:46.819Z,43.70
2019-04-25T04:21:33.268Z,43.33
2019-04-25T04:24:27.155Z,44.08
2019-04-25T04:27:06.724Z,42.25
2019-04-25T04:29:35.714Z,43.23
2019-04-25T04:34:33.964Z,41.87
2019-04-25T04:39:33.885Z,41.42
2019-04-25T04:42:03.904Z,41.45
2019-04-25T04:44:34.348Z,40.95
2019-04-25T04:47:05.096Z,42.38
2019-04-25T04:55:07.682Z,43.17
2019-04-25T04:57:34.160Z,42.38
2019-04-25T05:00:03.636Z,42.35
2019-04-25T05:02:53.278Z,42.10
2019-04-25T05:05:27.312Z,59.30
2019-04-25T05:07:58.495Z,43.68
2019-04-25T05:10:28.048Z,42.03
2019-04-25T05:15:26.443Z,41.15
2019-04-25T05:20:24.642Z,41.57
2019-04-25T05:22:54.918Z,46.83
2019-04-25T05:25:26.127Z,44.85
2019-04-25T05:28:02.859Z,44.83
2019-04-25T05:33:10.065Z,57.05
2019-04-25T05:38:08.275Z,44.30
2019-04-25T05:40:39.396Z,52.33
2019-04-25T05:43:29.575Z,45.20
2019-04-25T05:46:00.127Z,39.33
2019-04-25T05:51:11.004Z,40.53
2019-04-25T05:53:40.555Z,43.45
2019-04-25T05:58:38.911Z,42.43
2019-04-25T06:03:37.099Z,41.80
2019-04-25T06:06:06.711Z,38.65
2019-04-25T06:08:38.935Z,37.28
2019-04-25T06:11:16.019Z,37.03
2019-04-25T06:13:47.146Z,37.03
2019-04-25T06:16:27.062Z,35.70
2019-04-25T06:19:19.711Z,38.58
2019-04-25T06:21:49.289Z,35.75
2019-04-25T06:24:20.518Z,38.08
2019-04-25T06:27:08.032Z,42.85
2019-04-25T06:29:37.579Z,36.23
2019-04-25T06:34:37.551Z,37.17
2019-04-25T06:37:19.194Z,33.20
2019-04-25T06:39:48.758Z,33.80
2019-04-25T06:44:56.132Z,26.30
2019-04-25T06:47:39.215Z,29.70
2019-04-25T06:50:08.776Z,25.77
2019-04-25T06:55:07.093Z,25.20
2019-04-25T06:57:36.639Z,24.12
2019-04-25T07:02:39.189Z,21.90
2019-04-25T07:05:09.810Z,22.45
2019-04-25T07:07:40.623Z,23.32
2019-04-25T07:10:10.252Z,22.55
2019-04-25T07:12:39.812Z,18.37
2019-04-25T07:15:13.777Z,19.42
2019-04-25T07:17:45.469Z,18.45
2019-04-25T07:20:14.830Z,18.15
2019-04-25T07:25:13.971Z,16.77
2019-04-25T07:28:03.306Z,16.23
2019-04-25T07:30:48.634Z,16.50
2019-04-25T07:35:55.267Z,15.90
2019-04-25T07:38:24.754Z,15.30
2019-04-25T07:40:54.883Z,12.82
2019-04-25T07:45:53.569Z,11.65
2019-04-25T07:48:24.793Z,13.18
2019-04-25T07:50:54.589Z,13.65
2019-04-25T07:53:26.995Z,13.43
2019-04-25T07:55:55.320Z,12.18
2019-04-25T07:58:38.222Z,11.45
2019-04-25T08:00:59.220Z,12.58
2019-04-25T08:03:28.779Z,12.98
2019-04-25T08:05:59.932Z,11.97
2019-04-25T08:08:29.758Z,11.10
2019-04-25T08:11:08.359Z,11.73
2019-04-25T08:13:39.883Z,12.00
2019-04-25T08:16:11.167Z,11.48
2019-04-25T08:18:40.779Z,11.63
2019-04-25T08:21:10.267Z,10.60
2019-04-25T08:23:41.011Z,10.23
2019-04-25T08:26:31.103Z,9.50
2019-04-25T08:29:00.715Z,9.78
2019-04-25T08:34:00.925Z,10.65
2019-04-25T08:36:31.161Z,9.55
2019-04-25T08:39:00.987Z,9.75
2019-04-25T08:41:34.161Z,9.55
2019-04-25T08:44:04.080Z,9.10
2019-04-25T08:46:35.803Z,9.23
2019-04-25T08:49:19.116Z,9.95
2019-04-25T08:51:50.300Z,10.20
2019-04-25T08:54:40.073Z,8.75
2019-04-25T08:57:09.119Z,9.70
2019-04-25T08:59:44.735Z,10.08
2019-04-25T09:02:13.593Z,9.03
2019-04-25T09:04:44.869Z,9.85
2019-04-25T09:07:14.336Z,9.13
2019-04-25T09:12:14.270Z,8.95
2019-04-25T09:14:46.295Z,9.30
2019-04-25T09:17:14.999Z,9.70
2019-04-25T09:19:45.337Z,9.23
2019-04-25T09:22:15.073Z,9.13
2019-04-25T09:24:45.361Z,9.18
2019-04-25T09:27:15.139Z,8.68
2019-04-25T09:29:46.327Z,9.18
2019-04-25T09:32:16.925Z,8.90
2019-04-25T09:34:46.624Z,8.50
2019-04-25T09:37:16.100Z,9.03
2019-04-25T09:42:18.948Z,8.20
2019-04-25T09:44:53.739Z,8.73
2019-04-25T09:47:23.483Z,8.78
2019-04-25T09:49:53.840Z,7.12
2019-04-25T09:52:24.526Z,6.50
2019-04-25T09:54:58.413Z,6.70
2019-04-25T09:57:33.546Z,7.67
2019-04-25T10:00:04.948Z,7.40
2019-04-25T10:02:36.905Z,7.78
2019-04-25T10:05:07.267Z,7.50
2019-04-25T10:07:37.288Z,7.75
2019-04-25T10:10:07.759Z,7.42
2019-04-25T10:12:37.376Z,8.43
2019-04-25T10:15:39.092Z,7.92
2019-04-25T10:18:08.610Z,7.78
2019-04-25T10:20:38.084Z,7.65
2019-04-25T10:23:07.703Z,7.60
2019-04-25T10:25:38.055Z,8.28
2019-04-25T10:28:07.866Z,7.55
2019-04-25T10:30:37.420Z,7.83
2019-04-25T10:33:06.952Z,7.62
2019-04-25T10:35:46.686Z,7.72
2019-04-25T10:38:07.734Z,8.15
2019-04-25T10:40:37.216Z,8.33
2019-04-25T10:43:07.356Z,8.33
2019-04-25T10:45:37.256Z,7.20
2019-04-25T10:48:06.804Z,7.78
2019-04-25T10:50:36.350Z,7.72
2019-04-25T10:53:05.897Z,7.83
2019-04-25T10:55:35.535Z,7.92
2019-04-25T10:58:05.075Z,7.45
2019-04-25T11:00:42.451Z,7.05
2019-04-25T11:03:29.447Z,7.85
2019-04-25T11:05:58.935Z,7.78
2019-04-25T11:08:28.555Z,7.50
2019-04-25T11:10:59.304Z,6.78
2019-04-25T11:13:28.919Z,6.80
2019-04-25T11:15:58.455Z,6.22
2019-04-25T11:18:28.075Z,7.03
2019-04-25T11:20:57.620Z,8.55
2019-04-25T11:23:27.101Z,6.10
2019-04-25T11:25:56.641Z,6.42
2019-04-25T11:28:26.196Z,6.30
2019-04-25T11:30:55.676Z,5.95
2019-04-25T11:33:25.160Z,6.35
2019-04-25T11:35:56.213Z,6.37
2019-04-25T11:38:44.048Z,6.45
2019-04-25T11:41:18.111Z,6.08
2019-04-25T11:44:07.012Z,5.70
2019-04-25T11:46:39.197Z,6.22
2019-04-25T11:49:07.674Z,6.62
2019-04-25T11:51:37.212Z,7.12
2019-04-25T11:54:06.747Z,6.62
2019-04-25T11:56:36.308Z,6.92
2019-04-25T11:59:05.908Z,6.50
2019-04-25T12:01:35.612Z,6.92
2019-04-25T12:04:05.237Z,6.95
2019-04-25T12:06:34.857Z,6.08
2019-04-25T12:09:05.276Z,6.60
2019-04-25T12:11:36.052Z,6.72
2019-04-25T12:14:05.595Z,6.20
2019-04-25T12:16:35.076Z,6.62
2019-04-25T12:19:04.851Z,7.37
2019-04-25T12:21:34.569Z,7.53
2019-04-25T12:24:05.752Z,7.40
2019-04-25T12:26:35.345Z,7.72
2019-04-25T12:29:04.890Z,7.50
2019-04-25T12:31:34.485Z,7.33
2019-04-25T12:34:03.951Z,7.08
2019-04-25T12:36:34.108Z,6.67
2019-04-25T12:39:07.087Z,6.80
2019-04-25T12:41:38.351Z,6.92
2019-04-25T12:44:18.240Z,7.42
2019-04-25T12:46:50.308Z,7.55
2019-04-25T12:49:20.134Z,7.10
2019-04-25T12:51:49.815Z,6.62
2019-04-25T12:54:19.750Z,7.30
2019-04-25T12:56:50.311Z,6.97
2019-04-25T12:59:19.847Z,6.90
2019-04-25T13:01:49.574Z,7.67
2019-04-25T13:04:19.127Z,7.85
2019-04-25T13:06:48.862Z,6.95
2019-04-25T13:09:18.515Z,7.75
2019-04-25T13:11:48.140Z,7.97
2019-04-25T13:14:17.766Z,7.85
2019-04-25T13:16:47.323Z,16.80
2019-04-25T13:19:23.719Z,8.90
2019-04-25T13:21:47.963Z,6.87
2019-04-25T13:24:17.584Z,6.62
2019-04-25T13:26:53.138Z,6.92
2019-04-25T13:29:27.655Z,7.85
2019-04-25T13:32:13.933Z,6.85
2019-04-25T13:34:48.122Z,7.50
2019-04-25T13:37:17.666Z,7.20
2019-04-25T13:39:47.211Z,7.95
2019-04-25T13:42:16.976Z,7.75
2019-04-25T13:44:46.473Z,7.78
2019-04-25T13:47:15.911Z,7.22
2019-04-25T13:52:14.835Z,7.75
2019-04-25T13:54:44.739Z,8.28
2019-04-25T13:57:14.263Z,8.23
2019-04-25T13:59:44.104Z,7.28
2019-04-25T14:02:15.361Z,8.70
2019-04-25T14:04:44.915Z,9.33
2019-04-25T14:07:14.973Z,9.23
2019-04-25T14:09:44.777Z,9.28
2019-04-25T14:12:15.023Z,8.48
2019-04-25T14:14:44.485Z,7.85
2019-04-25T14:19:45.940Z,8.40
2019-04-25T14:22:15.529Z,8.23
2019-04-25T14:24:45.064Z,8.45
2019-04-25T14:27:16.282Z,7.70
2019-04-25T14:29:45.819Z,8.33
2019-04-25T14:32:15.971Z,7.08
2019-04-25T14:34:45.579Z,7.65
2019-04-25T14:37:15.071Z,7.25
2019-04-25T14:39:44.607Z,7.45
2019-04-25T14:42:14.102Z,8.63
2019-04-25T14:47:40.236Z,7.85
2019-04-25T14:50:09.856Z,8.93
2019-04-25T14:52:39.419Z,8.15
2019-04-25T14:55:13.250Z,8.00
2019-04-25T14:57:42.895Z,8.70
2019-04-25T15:00:16.995Z,9.08
2019-04-25T15:02:46.604Z,8.63
2019-04-25T15:05:16.089Z,7.87
2019-04-25T15:07:45.636Z,8.53
2019-04-25T15:10:15.187Z,8.18
2019-04-25T15:12:44.667Z,8.53
2019-04-25T15:17:46.483Z,8.63
2019-04-25T15:20:14.019Z,8.53
2019-04-25T15:25:12.507Z,8.43
2019-04-25T15:27:42.240Z,9.50
2019-04-25T15:30:13.360Z,8.55
2019-04-25T15:32:42.848Z,8.93
2019-04-25T15:35:13.961Z,8.95
2019-04-25T15:37:45.088Z,8.43
2019-04-25T15:40:16.201Z,9.30
2019-04-25T15:42:50.403Z,10.08
2019-04-25T15:45:31.192Z,9.30
2019-04-25T15:48:03.581Z,8.63
2019-04-25T15:50:34.024Z,10.48
2019-04-25T15:53:03.752Z,10.63
2019-04-25T15:55:33.371Z,10.30
2019-04-25T15:58:03.857Z,10.50
2019-04-25T16:03:06.079Z,9.90
2019-04-25T16:05:35.991Z,9.43
2019-04-25T16:08:06.232Z,9.63
2019-04-25T16:10:36.648Z,10.05
2019-04-25T16:13:07.317Z,10.38
2019-04-25T16:15:36.801Z,10.00
2019-04-25T16:20:36.107Z,9.93
2019-04-25T16:23:06.055Z,10.18
2019-04-25T16:25:35.747Z,10.35
2019-04-25T16:28:05.328Z,9.50
2019-04-25T16:30:34.905Z,12.15
2019-04-25T16:33:04.451Z,12.45
2019-04-25T16:35:34.012Z,12.75
2019-04-25T16:38:04.127Z,12.53
2019-04-25T16:40:34.979Z,12.68
2019-04-25T16:43:06.288Z,12.55
2019-04-25T16:45:37.772Z,11.48
2019-04-25T16:48:09.490Z,10.85
2019-04-25T16:50:39.966Z,14.23
2019-04-25T16:53:09.489Z,16.62
2019-04-25T17:00:50.777Z,48.87
2019-04-25T17:03:21.305Z,49.55
2019-04-25T17:05:50.852Z,50.78
2019-04-25T17:08:20.406Z,45.88
2019-04-25T17:10:50.011Z,30.32
2019-04-25T17:13:19.671Z,20.50
2019-04-25T17:16:05.844Z,17.17
2019-04-25T17:21:20.516Z,14.75
2019-04-25T17:23:49.999Z,14.25
2019-04-25T17:28:49.896Z,15.48
2019-04-25T17:31:56.827Z,14.98
2019-04-25T17:37:36.266Z,15.45
2019-04-25T17:40:20.048Z,35.58
2019-04-25T17:42:49.667Z,42.67
2019-04-25T17:45:20.864Z,24.37
2019-04-25T17:47:54.563Z,21.07
2019-04-25T17:50:22.587Z,17.00
2019-04-25T17:52:53.219Z,16.15
2019-04-25T17:55:22.832Z,19.62
2019-04-25T17:57:52.458Z,39.75
2019-04-25T18:03:06.311Z,24.00
2019-04-25T18:05:36.429Z,23.83
2019-04-25T18:08:06.341Z,25.85
2019-04-25T18:10:36.392Z,17.87
2019-04-25T18:13:09.321Z,16.50
2019-04-25T18:18:35.360Z,15.50
2019-04-25T18:21:24.643Z,14.50
2019-04-25T18:24:12.071Z,20.90
2019-04-25T18:26:48.969Z,17.67
2019-04-25T18:29:19.799Z,28.83
2019-04-25T18:31:49.364Z,36.03
2019-04-25T18:34:34.936Z,34.90
2019-04-25T18:37:18.443Z,32.88
2019-04-25T18:39:49.574Z,26.23
2019-04-25T18:42:37.860Z,23.18
2019-04-25T18:45:08.772Z,27.13
2019-04-25T18:47:38.336Z,27.07
2019-04-25T18:50:09.483Z,28.77
2019-04-25T18:52:47.143Z,31.77
2019-04-25T18:55:18.607Z,28.05
2019-04-25T18:57:49.788Z,28.47
2019-04-25T19:00:23.543Z,27.73
2019-04-25T19:03:09.818Z,29.05
2019-04-25T19:05:43.739Z,25.48
2019-04-25T19:08:13.336Z,25.05
2019-04-25T19:10:42.960Z,22.75
2019-04-25T19:13:13.291Z,20.65
2019-04-25T19:15:43.145Z,20.72
2019-04-25T19:18:13.040Z,21.25
2019-04-25T19:20:44.028Z,25.60
2019-04-25T19:23:13.738Z,21.82
2019-04-25T19:25:43.709Z,22.65
2019-04-25T19:28:13.539Z,21.93
2019-04-25T19:30:43.189Z,23.47
2019-04-25T19:33:13.824Z,22.85
2019-04-25T19:35:43.630Z,28.75
2019-04-25T19:38:13.326Z,27.75
2019-04-25T19:43:23.404Z,20.02
2019-04-25T19:45:58.386Z,22.15
2019-04-25T19:48:28.679Z,32.73
2019-04-25T19:53:26.947Z,46.77
2019-04-25T19:58:25.308Z,48.63
2019-04-25T20:06:24.778Z,24.35
2019-04-25T20:11:49.389Z,19.42
2019-04-25T20:14:19.339Z,20.72
2019-04-25T20:19:17.698Z,19.05
2019-04-25T20:24:15.943Z,20.55
2019-04-25T20:27:04.855Z,21.17
2019-04-25T20:29:34.587Z,21.60
2019-04-25T20:34:32.907Z,20.70
2019-04-25T20:37:02.447Z,20.68
2019-04-25T20:39:46.027Z,21.00
2019-04-25T20:42:29.199Z,21.15
2019-04-25T20:44:58.783Z,20.10
2019-04-25T20:49:57.785Z,20.20
2019-04-25T20:52:27.519Z,19.10
2019-04-25T20:57:46.901Z,19.40
2019-04-25T21:00:35.838Z,19.42
2019-04-25T21:03:05.490Z,19.80
2019-04-25T21:08:05.202Z,19.92
2019-04-25T21:10:34.856Z,19.62
2019-04-25T21:13:05.968Z,21.02
2019-04-25T21:15:41.163Z,20.15
2019-04-25T21:18:15.037Z,26.68
2019-04-25T21:20:44.598Z,20.57
2019-04-25T21:25:43.939Z,21.48
2019-04-25T21:30:42.268Z,21.85
2019-04-25T21:35:44.375Z,19.57
2019-04-25T21:38:15.617Z,21.30
2019-04-25T21:41:22.066Z,21.12
2019-04-25T21:43:55.131Z,22.55
2019-04-25T21:46:26.010Z,24.10
2019-04-25T21:48:56.858Z,21.40
2019-04-25T21:51:32.755Z,21.12
2019-04-25T21:54:03.688Z,19.80
2019-04-25T21:59:21.305Z,20.52
2019-04-25T22:01:51.176Z,19.55
2019-04-25T22:04:22.296Z,20.72
2019-04-25T22:07:11.691Z,19.90
2019-04-25T22:09:41.847Z,19.82
2019-04-25T22:12:12.364Z,18.42
2019-04-25T22:14:41.996Z,19.35
2019-04-25T22:17:11.671Z,19.85
2019-04-25T22:19:41.823Z,19.87
2019-04-25T22:22:17.550Z,20.10
2019-04-25T22:24:47.535Z,21.55
2019-04-25T22:29:49.081Z,20.77
2019-04-25T22:32:20.301Z,20.32
2019-04-25T22:34:52.827Z,25.57
2019-04-25T22:37:22.598Z,22.55
2019-04-25T22:39:52.400Z,22.75
2019-04-25T22:42:22.993Z,22.48
2019-04-25T22:47:21.322Z,22.50
2019-04-25T22:52:19.713Z,20.77
2019-04-25T22:57:18.413Z,20.77
2019-04-25T22:59:48.443Z,20.45
2019-04-25T23:06:07.586Z,20.57
2019-04-25T23:08:37.219Z,20.08
2019-04-25T23:13:36.020Z,21.27
2019-04-25T23:16:06.935Z,21.90
2019-04-25T23:18:36.696Z,21.97
2019-04-25T23:21:06.789Z,21.97
2019-04-25T23:23:36.571Z,22.22
2019-04-25T23:28:45.103Z,21.40
2019-04-25T23:31:27.952Z,21.30
2019-04-25T23:33:58.567Z,22.27
2019-04-25T23:36:28.088Z,22.37
2019-04-25T23:41:26.540Z,20.17
2019-04-25T23:46:25.267Z,21.33
2019-04-25T23:51:23.500Z,21.20
2019-04-25T23:53:53.612Z,20.95
2019-04-25T23:56:23.181Z,22.37
2019-04-25T23:58:53.180Z,23.25
